createdAt,value
2022-10-18T00:02:45.113Z,99504.59
2022-10-18T00:05:30.659Z,99547.78
2022-10-18T00:08:17.388Z,99391.41
2022-10-18T00:11:03.947Z,99503.66
2022-10-18T00:13:49.387Z,99355.97
2022-10-18T00:16:34.712Z,99344.09
2022-10-18T00:19:20.155Z,99459.00
2022-10-18T00:22:05.537Z,99436.81
2022-10-18T00:24:51.164Z,99482.34
2022-10-18T00:27:36.527Z,99515.69
2022-10-18T00:30:21.987Z,99514.41
2022-10-18T00:33:07.218Z,99337.38
2022-10-18T00:35:52.990Z,99531.41
2022-10-18T00:38:39.218Z,99513.25
2022-10-18T00:41:27.112Z,99391.47
2022-10-18T00:44:12.410Z,99515.06
2022-10-18T00:47:03.368Z,99379.59
2022-10-18T00:49:53.670Z,99505.41
2022-10-18T00:52:47.126Z,99322.47
2022-10-18T00:55:34.060Z,99352.69
2022-10-18T00:58:20.148Z,99465.72
2022-10-18T01:01:06.122Z,99407.41
2022-10-18T01:03:52.874Z,99310.06
2022-10-18T01:06:50.683Z,99508.78
2022-10-18T01:09:41.900Z,99525.03
2022-10-18T01:12:51.866Z,99506.50
2022-10-18T01:16:00.279Z,99487.25
2022-10-18T01:19:02.678Z,99449.34
2022-10-18T01:21:59.853Z,99487.59
2022-10-18T01:24:58.120Z,99484.63
2022-10-18T01:27:55.451Z,99467.81
2022-10-18T01:30:45.218Z,99436.34
2022-10-18T01:33:38.274Z,99279.16
2022-10-18T01:36:32.715Z,99437.78
2022-10-18T01:39:29.490Z,99283.41
2022-10-18T01:42:20.206Z,99459.72
2022-10-18T01:45:08.043Z,99271.81
2022-10-18T01:47:54.915Z,99461.97
2022-10-18T01:50:40.566Z,99425.50
2022-10-18T01:53:29.275Z,99403.34
2022-10-18T01:56:39.630Z,99439.09
2022-10-18T01:59:47.100Z,99408.63
2022-10-18T02:02:41.283Z,99442.09
2022-10-18T02:05:33.286Z,99443.38
2022-10-18T02:08:27.971Z,99467.91
2022-10-18T02:11:15.908Z,99350.72
2022-10-18T02:14:08.288Z,99406.72
2022-10-18T02:17:00.049Z,99240.88
2022-10-18T02:19:51.979Z,99422.00
2022-10-18T02:22:40.922Z,99237.50
2022-10-18T02:25:30.242Z,99319.59
2022-10-18T02:28:15.790Z,99343.59
2022-10-18T02:31:10.842Z,99247.97
2022-10-18T02:34:02.661Z,99431.16
2022-10-18T02:36:58.061Z,99381.72
2022-10-18T02:39:47.719Z,99277.41
2022-10-18T02:42:38.672Z,99430.38
2022-10-18T02:45:25.122Z,99235.72
2022-10-18T02:48:10.555Z,99372.69
2022-10-18T02:50:55.931Z,99353.53
2022-10-18T02:53:41.556Z,99189.72
2022-10-18T02:56:27.264Z,99398.19
2022-10-18T02:59:13.004Z,99399.75
2022-10-18T03:01:58.316Z,99375.66
2022-10-18T03:04:43.847Z,99345.59
2022-10-18T03:07:29.284Z,99287.94
2022-10-18T03:10:15.184Z,99387.34
2022-10-18T03:13:00.485Z,99336.84
2022-10-18T03:15:47.046Z,99241.63
2022-10-18T03:18:32.459Z,99386.06
2022-10-18T03:21:17.836Z,99409.72
2022-10-18T03:24:03.652Z,99197.28
2022-10-18T03:26:49.336Z,99210.31
2022-10-18T03:29:34.459Z,99201.06
2022-10-18T03:32:20.044Z,99374.03
2022-10-18T03:35:06.324Z,99202.56
2022-10-18T03:37:51.587Z,99187.38
2022-10-18T03:40:37.041Z,99193.84
2022-10-18T03:43:22.656Z,99376.47
2022-10-18T03:46:07.919Z,99372.22
2022-10-18T03:48:53.233Z,99393.75
2022-10-18T03:51:38.432Z,99224.63
2022-10-18T03:54:23.913Z,99203.38
2022-10-18T03:57:09.180Z,99176.06
2022-10-18T03:59:54.719Z,99366.97
2022-10-18T04:02:40.136Z,99390.44
2022-10-18T04:05:28.024Z,99369.19
2022-10-18T04:08:13.982Z,99358.25
2022-10-18T04:10:59.617Z,99362.09
2022-10-18T04:13:45.084Z,99209.16
2022-10-18T04:16:30.543Z,99182.44
2022-10-18T04:19:16.009Z,99215.19
2022-10-18T04:22:01.593Z,99287.88
2022-10-18T04:24:46.866Z,99274.88
2022-10-18T04:27:32.558Z,99368.84
2022-10-18T04:30:18.362Z,99335.22
2022-10-18T04:33:04.126Z,99184.22
2022-10-18T04:35:52.661Z,99234.47
2022-10-18T04:38:38.031Z,99194.06
2022-10-18T04:41:23.373Z,99359.94
2022-10-18T04:44:08.972Z,99309.25
2022-10-18T04:46:54.208Z,99325.38
2022-10-18T04:49:39.742Z,99350.63
2022-10-18T04:52:25.035Z,99353.78
2022-10-18T04:55:10.640Z,99342.94
2022-10-18T04:57:56.087Z,99267.03
2022-10-18T05:00:42.253Z,99315.66
2022-10-18T05:03:27.776Z,99344.00
2022-10-18T05:06:14.414Z,99300.34
2022-10-18T05:08:59.749Z,99343.59
2022-10-18T05:11:45.210Z,99345.50
2022-10-18T05:14:30.540Z,99323.22
2022-10-18T05:17:16.163Z,99316.00
2022-10-18T05:20:01.687Z,99274.75
2022-10-18T05:22:47.376Z,99171.91
2022-10-18T05:25:32.908Z,99346.50
2022-10-18T05:28:38.843Z,99197.19
2022-10-18T05:31:23.867Z,99344.16
2022-10-18T05:34:09.749Z,99185.09
2022-10-18T05:36:57.086Z,99357.22
2022-10-18T05:39:42.988Z,99197.38
2022-10-18T05:42:28.699Z,99307.75
2022-10-18T05:45:14.770Z,99311.63
2022-10-18T05:48:00.552Z,99357.00
2022-10-18T05:50:46.070Z,99325.09
2022-10-18T05:53:36.732Z,99361.16
2022-10-18T05:56:23.901Z,99323.31
2022-10-18T05:59:12.500Z,99262.63
2022-10-18T06:01:58.052Z,99215.69
2022-10-18T06:04:43.475Z,99369.28
2022-10-18T06:07:28.928Z,99343.06
2022-10-18T06:10:14.083Z,99369.47
2022-10-18T06:12:59.537Z,99367.66
2022-10-18T06:15:44.741Z,99241.06
2022-10-18T06:18:30.211Z,99238.88
2022-10-18T06:21:21.446Z,99370.28
2022-10-18T06:24:12.976Z,99378.78
2022-10-18T06:27:02.121Z,99384.66
2022-10-18T06:29:48.181Z,99380.53
2022-10-18T06:32:33.664Z,99344.56
2022-10-18T06:35:20.577Z,99388.88
2022-10-18T06:38:06.499Z,99382.19
2022-10-18T06:40:52.090Z,99189.34
2022-10-18T06:43:37.885Z,99382.03
2022-10-18T06:46:23.989Z,99397.50
2022-10-18T06:49:12.073Z,99261.41
2022-10-18T06:51:59.555Z,99302.66
2022-10-18T06:54:45.512Z,99395.31
2022-10-18T06:57:31.701Z,99390.56
2022-10-18T07:00:17.439Z,99311.66
2022-10-18T07:03:02.859Z,99284.25
2022-10-18T07:05:49.472Z,99388.72
2022-10-18T07:08:35.421Z,99307.75
2022-10-18T07:11:24.468Z,99354.53
2022-10-18T07:14:14.000Z,99386.13
2022-10-18T07:17:02.087Z,99373.72
2022-10-18T07:19:47.296Z,99244.81
2022-10-18T07:22:34.328Z,99257.59
2022-10-18T07:25:20.418Z,99246.38
2022-10-18T07:28:06.875Z,99370.41
2022-10-18T07:30:53.631Z,99399.94
2022-10-18T07:33:40.319Z,99297.09
2022-10-18T07:36:26.091Z,99276.44
2022-10-18T07:39:12.095Z,99370.47
2022-10-18T07:41:59.035Z,99313.59
2022-10-18T07:44:45.063Z,99372.81
2022-10-18T07:47:32.826Z,99358.06
2022-10-18T07:50:20.930Z,99188.88
2022-10-18T07:53:06.607Z,99215.31
2022-10-18T07:55:58.370Z,99357.09
2022-10-18T07:58:46.125Z,99362.22
2022-10-18T08:01:31.699Z,99350.63
2022-10-18T08:04:17.089Z,99318.50
2022-10-18T08:07:03.145Z,99336.50
2022-10-18T08:09:48.891Z,99360.84
2022-10-18T08:12:34.287Z,99276.13
2022-10-18T08:15:21.866Z,99193.09
2022-10-18T08:18:07.333Z,99357.50
2022-10-18T08:20:52.817Z,99186.13
2022-10-18T08:23:39.147Z,99289.97
2022-10-18T08:26:24.838Z,99326.81
2022-10-18T08:29:23.016Z,99229.19
2022-10-18T08:32:10.220Z,99297.94
2022-10-18T08:34:55.757Z,99355.25
2022-10-18T08:37:41.269Z,99315.59
2022-10-18T08:40:27.851Z,99302.78
2022-10-18T08:43:26.115Z,99316.78
2022-10-18T08:46:12.769Z,99330.91
2022-10-18T08:48:59.327Z,99274.19
2022-10-18T08:51:49.241Z,99251.94
2022-10-18T08:54:44.302Z,99262.47
2022-10-18T08:57:31.214Z,99260.13
2022-10-18T09:00:29.262Z,99299.59
2022-10-18T09:03:14.964Z,99313.41
2022-10-18T09:06:31.454Z,99293.97
2022-10-18T09:09:41.427Z,99142.56
2022-10-18T09:13:01.255Z,99310.72
2022-10-18T09:15:57.139Z,99140.59
2022-10-18T09:19:03.708Z,99256.09
2022-10-18T09:21:54.685Z,99131.69
2022-10-18T09:24:41.779Z,98902.41
2022-10-18T09:28:02.097Z,99231.25
2022-10-18T09:30:59.466Z,99118.38
2022-10-18T09:33:53.304Z,99259.91
2022-10-18T09:36:39.838Z,99141.63
2022-10-18T09:39:32.583Z,99202.00
2022-10-18T09:42:28.270Z,99238.41
2022-10-18T09:45:32.194Z,99262.97
2022-10-18T09:48:28.034Z,99262.09
2022-10-18T09:51:23.479Z,99218.38
2022-10-18T09:54:34.043Z,99233.34
2022-10-18T09:57:31.272Z,99225.28
2022-10-18T10:00:24.330Z,99151.16
2022-10-18T10:03:14.742Z,99106.50
2022-10-18T10:06:23.903Z,99198.84
2022-10-18T10:09:17.397Z,99085.72
2022-10-18T10:12:03.230Z,99053.00
2022-10-18T10:14:48.680Z,99131.13
2022-10-18T10:17:34.967Z,99190.50
2022-10-18T10:20:24.519Z,99175.09
2022-10-18T10:23:22.974Z,99178.03
2022-10-18T10:26:21.014Z,99175.03
2022-10-18T10:29:44.462Z,99172.81
2022-10-18T10:32:42.077Z,99155.41
2022-10-18T10:35:56.365Z,99158.38
2022-10-18T10:38:41.945Z,99035.59
2022-10-18T10:41:27.772Z,99158.78
2022-10-18T10:44:23.337Z,99108.78
2022-10-18T10:47:09.261Z,99048.75
2022-10-18T10:49:56.656Z,99015.50
2022-10-18T10:52:47.353Z,99125.91
2022-10-18T10:55:35.819Z,99012.59
2022-10-18T10:58:22.698Z,99121.00
2022-10-18T11:01:26.625Z,99101.34
2022-10-18T11:04:28.613Z,99105.31
2022-10-18T11:07:17.156Z,99111.81
2022-10-18T11:10:10.800Z,99083.38
2022-10-18T11:13:23.612Z,99092.41
2022-10-18T11:16:25.997Z,98977.25
2022-10-18T11:19:41.088Z,98954.09
2022-10-18T11:22:31.700Z,99061.06
2022-10-18T11:25:16.972Z,99079.72
2022-10-18T11:28:35.897Z,99067.69
2022-10-18T11:31:35.893Z,99004.06
2022-10-18T11:34:29.048Z,99013.69
2022-10-18T11:37:42.215Z,99073.16
2022-10-18T11:40:30.888Z,99056.13
2022-10-18T11:44:01.802Z,99058.22
2022-10-18T11:47:17.019Z,99035.47
2022-10-18T11:50:26.130Z,99033.66
2022-10-18T11:53:31.223Z,99030.41
2022-10-18T11:56:32.375Z,99018.22
2022-10-18T11:59:37.962Z,99020.38
2022-10-18T12:02:48.480Z,99011.13
2022-10-18T12:05:38.067Z,98866.94
2022-10-18T12:08:31.622Z,98976.28
2022-10-18T12:11:36.524Z,98932.75
2022-10-18T12:14:30.190Z,98958.91
2022-10-18T12:17:46.181Z,98984.56
2022-10-18T12:20:49.420Z,98978.19
2022-10-18T12:23:45.650Z,98913.41
2022-10-18T12:26:33.219Z,98944.00
2022-10-18T12:29:30.591Z,98836.91
2022-10-18T12:32:30.283Z,98834.94
2022-10-18T12:35:17.931Z,98925.16
2022-10-18T12:38:03.291Z,98967.63
2022-10-18T12:40:52.544Z,98817.19
2022-10-18T12:43:38.408Z,98936.16
2022-10-18T12:46:23.837Z,98805.00
2022-10-18T12:49:12.709Z,98911.66
2022-10-18T12:52:01.717Z,98806.81
2022-10-18T12:55:18.398Z,98922.91
2022-10-18T12:58:15.477Z,98890.25
2022-10-18T13:01:05.997Z,98927.09
2022-10-18T13:03:54.962Z,98938.25
2022-10-18T13:07:43.274Z,98921.63
2022-10-18T13:10:34.170Z,98770.53
2022-10-18T13:13:39.820Z,98916.34
2022-10-18T13:16:29.766Z,98912.25
2022-10-18T13:19:30.750Z,98940.56
2022-10-18T13:22:22.320Z,98895.41
2022-10-18T13:25:16.973Z,98922.16
2022-10-18T13:28:21.439Z,98902.31
2022-10-18T13:31:19.452Z,98898.06
2022-10-18T13:34:35.325Z,98898.69
2022-10-18T13:37:24.602Z,98786.41
2022-10-18T13:40:36.751Z,98893.31
2022-10-18T13:43:51.553Z,98883.94
2022-10-18T13:46:37.773Z,98907.06
2022-10-18T13:49:38.567Z,98738.47
2022-10-18T13:52:43.015Z,98870.41
2022-10-18T13:59:15.022Z,98860.47
2022-10-18T14:02:11.224Z,98858.50
2022-10-18T14:05:38.785Z,98856.31
2022-10-18T14:08:40.005Z,98792.06
2022-10-18T14:11:46.246Z,98851.19
2022-10-18T14:14:40.746Z,98705.09
2022-10-18T14:17:46.334Z,98829.03
2022-10-18T14:21:01.445Z,98834.66
2022-10-18T14:23:52.285Z,98832.47
2022-10-18T14:29:25.178Z,98713.53
2022-10-18T14:32:25.259Z,98815.72
2022-10-18T14:35:32.559Z,98722.09
2022-10-18T14:38:22.830Z,98697.25
2022-10-18T14:41:28.923Z,98814.59
2022-10-18T14:44:34.652Z,98800.03
2022-10-18T14:47:26.037Z,98805.28
2022-10-18T14:50:32.351Z,98775.16
2022-10-18T14:53:34.653Z,98764.66
2022-10-18T14:56:27.864Z,98785.50
2022-10-18T14:59:22.002Z,98782.06
2022-10-18T15:02:27.759Z,98635.81
2022-10-18T15:05:16.697Z,98778.38
2022-10-18T15:08:02.851Z,98753.78
2022-10-18T15:10:48.988Z,98651.56
2022-10-18T15:13:37.215Z,98622.72
2022-10-18T15:16:33.115Z,98728.75
2022-10-18T15:19:22.240Z,98794.81
2022-10-18T15:25:19.876Z,98755.09
2022-10-18T15:28:29.680Z,98617.91
2022-10-18T15:31:24.837Z,98769.88
2022-10-18T15:34:34.621Z,98761.03
2022-10-18T15:37:33.062Z,98625.88
2022-10-18T15:40:36.284Z,98750.41
2022-10-18T15:43:28.814Z,98748.81
2022-10-18T15:46:32.286Z,98616.84
2022-10-18T15:49:40.719Z,98750.59
2022-10-18T15:52:38.179Z,98744.53
2022-10-18T15:55:29.280Z,98759.69
2022-10-18T15:58:30.066Z,98766.81
2022-10-18T16:01:20.694Z,98747.78
2022-10-18T16:04:13.936Z,98743.78
2022-10-18T16:07:00.358Z,98744.44
2022-10-18T16:09:45.745Z,98746.31
2022-10-18T16:12:32.756Z,98742.94
2022-10-18T16:15:20.344Z,98675.66
2022-10-18T16:18:06.013Z,98705.13
2022-10-18T16:20:52.195Z,98742.25
2022-10-18T16:23:38.619Z,98739.09
2022-10-18T16:26:26.272Z,98744.13
2022-10-18T16:29:16.718Z,98743.41
2022-10-18T16:32:04.540Z,98734.63
2022-10-18T16:34:49.597Z,98589.63
2022-10-18T16:37:35.526Z,98726.84
2022-10-18T16:40:26.627Z,98584.84
2022-10-18T16:43:12.171Z,98716.47
2022-10-18T16:45:57.802Z,98730.00
2022-10-18T16:48:44.727Z,98707.25
2022-10-18T16:51:32.753Z,98690.75
2022-10-18T16:54:19.243Z,98737.97
2022-10-18T16:57:12.953Z,98740.63
2022-10-18T16:59:58.938Z,98744.41
2022-10-18T17:02:47.683Z,98734.69
2022-10-18T17:05:34.900Z,98742.19
2022-10-18T17:08:26.873Z,98572.50
2022-10-18T17:11:23.613Z,98732.16
2022-10-18T17:14:10.338Z,98576.00
2022-10-18T17:16:57.512Z,98724.47
2022-10-18T17:19:42.966Z,98719.03
2022-10-18T17:22:28.531Z,98572.66
2022-10-18T17:25:14.023Z,98729.88
2022-10-18T17:27:59.433Z,98621.78
2022-10-18T17:30:45.522Z,98725.38
2022-10-18T17:33:31.020Z,98698.63
2022-10-18T17:36:17.308Z,98595.53
2022-10-18T17:39:04.028Z,98489.75
2022-10-18T17:41:50.665Z,98732.47
2022-10-18T17:44:36.564Z,98659.22
2022-10-18T17:47:22.209Z,98584.59
2022-10-18T17:50:08.381Z,98714.03
2022-10-18T17:52:54.200Z,98558.56
2022-10-18T17:55:40.491Z,98590.91
2022-10-18T17:58:25.612Z,98714.03
2022-10-18T18:01:20.735Z,98566.19
2022-10-18T18:04:06.187Z,98618.34
2022-10-18T18:06:53.006Z,98655.00
2022-10-18T18:09:38.863Z,98546.94
2022-10-18T18:12:24.625Z,98550.78
2022-10-18T18:15:11.082Z,98691.81
2022-10-18T18:17:57.956Z,98655.69
2022-10-18T18:20:53.277Z,98641.31
2022-10-18T18:23:41.816Z,98581.69
2022-10-18T18:26:27.732Z,98650.75
2022-10-18T18:29:14.451Z,98652.38
2022-10-18T18:32:03.729Z,98676.34
2022-10-18T18:34:50.044Z,98673.72
2022-10-18T18:37:36.555Z,98626.28
2022-10-18T18:40:23.983Z,98508.59
2022-10-18T18:43:22.695Z,98671.13
2022-10-18T18:46:11.239Z,98606.84
2022-10-18T18:48:58.364Z,98671.81
2022-10-18T18:51:44.292Z,98567.50
2022-10-18T18:54:31.777Z,98536.19
2022-10-18T18:57:17.758Z,98566.50
2022-10-18T19:00:04.666Z,98510.16
2022-10-18T19:02:51.989Z,98675.06
2022-10-18T19:05:39.206Z,98666.00
2022-10-18T19:08:26.504Z,98673.66
2022-10-18T19:11:19.749Z,98650.22
2022-10-18T19:14:09.925Z,98680.59
2022-10-18T19:16:58.996Z,98660.63
2022-10-18T19:19:44.655Z,98647.88
2022-10-18T19:22:30.116Z,98641.44
2022-10-18T19:25:15.898Z,98637.34
2022-10-18T19:28:01.269Z,98660.50
2022-10-18T19:30:50.080Z,98662.09
2022-10-18T19:33:48.268Z,98493.19
2022-10-18T19:36:36.970Z,98658.88
2022-10-18T19:39:31.007Z,98647.00
2022-10-18T19:42:19.217Z,98607.81
2022-10-18T19:45:08.918Z,98602.59
2022-10-18T19:47:54.572Z,98460.28
2022-10-18T19:50:39.875Z,98615.91
2022-10-18T19:53:25.892Z,98624.16
2022-10-18T19:56:18.260Z,98487.22
2022-10-18T19:59:05.925Z,98636.88
2022-10-18T20:01:52.590Z,98622.25
2022-10-18T20:04:38.627Z,98619.88
2022-10-18T20:07:24.386Z,98556.53
2022-10-18T20:10:10.598Z,98614.31
2022-10-18T20:12:56.224Z,98608.28
2022-10-18T20:15:41.957Z,98590.56
2022-10-18T20:18:27.745Z,98602.81
2022-10-18T20:21:16.461Z,98449.78
2022-10-18T20:24:05.804Z,98598.38
2022-10-18T20:29:45.777Z,98591.44
2022-10-18T20:32:32.950Z,98431.75
2022-10-18T20:35:18.029Z,98563.97
2022-10-18T20:38:03.580Z,98592.72
2022-10-18T20:40:48.838Z,98538.38
2022-10-18T20:43:34.627Z,98590.44
2022-10-18T20:46:20.902Z,98528.97
2022-10-18T20:49:08.414Z,98598.16
2022-10-18T20:51:53.930Z,98586.41
2022-10-18T20:54:39.453Z,98585.03
2022-10-18T20:57:24.553Z,98569.50
2022-10-18T21:00:11.726Z,98568.69
2022-10-18T21:02:58.502Z,98402.28
2022-10-18T21:05:44.063Z,98430.19
2022-10-18T21:08:29.456Z,98579.03
2022-10-18T21:11:14.845Z,98509.97
2022-10-18T21:14:02.747Z,98540.03
2022-10-18T21:16:49.859Z,98514.81
2022-10-18T21:19:35.270Z,98568.94
2022-10-18T21:22:20.888Z,98484.25
2022-10-18T21:25:08.089Z,98445.69
2022-10-18T21:27:53.495Z,98423.03
2022-10-18T21:30:39.158Z,98580.81
2022-10-18T21:33:24.936Z,98551.16
2022-10-18T21:36:10.766Z,98395.59
2022-10-18T21:38:56.410Z,98415.75
2022-10-18T21:41:42.925Z,98391.63
2022-10-18T21:44:28.297Z,98387.97
2022-10-18T21:47:15.348Z,98375.97
2022-10-18T21:50:00.576Z,98539.75
2022-10-18T21:52:46.221Z,98494.69
2022-10-18T21:55:31.480Z,98483.72
2022-10-18T21:58:17.092Z,98505.13
2022-10-18T22:01:09.399Z,98342.25
2022-10-18T22:03:56.991Z,98375.44
2022-10-18T22:06:42.315Z,98428.88
2022-10-18T22:09:27.988Z,98354.38
2022-10-18T22:12:13.281Z,98350.56
2022-10-18T22:14:58.615Z,98539.56
2022-10-18T22:17:44.121Z,98536.19
2022-10-18T22:20:29.387Z,98385.69
2022-10-18T22:23:14.901Z,98374.56
2022-10-18T22:26:05.527Z,98387.16
2022-10-18T22:28:59.950Z,98353.34
2022-10-18T22:31:50.921Z,98521.84
2022-10-18T22:34:36.822Z,98459.59
2022-10-18T22:37:22.347Z,98534.28
2022-10-18T22:40:10.863Z,98344.72
2022-10-18T22:42:56.328Z,98509.38
2022-10-18T22:45:41.940Z,98505.44
2022-10-18T22:48:27.894Z,98315.31
2022-10-18T22:51:13.818Z,98526.38
2022-10-18T22:53:59.469Z,98499.31
2022-10-18T22:56:44.773Z,98510.88
2022-10-18T22:59:30.184Z,98472.91
2022-10-18T23:02:15.740Z,98476.13
2022-10-18T23:05:00.960Z,98375.72
2022-10-18T23:07:50.171Z,98441.00
2022-10-18T23:10:40.753Z,98437.19
2022-10-18T23:13:27.868Z,98494.25
2022-10-18T23:16:13.417Z,98352.63
2022-10-18T23:18:59.743Z,98464.28
2022-10-18T23:21:45.372Z,98344.88
2022-10-18T23:24:30.867Z,98434.50
2022-10-18T23:27:16.153Z,98395.88
2022-10-18T23:30:01.356Z,98481.38
2022-10-18T23:32:46.662Z,98360.81
2022-10-18T23:35:32.034Z,98478.22
2022-10-18T23:38:18.041Z,98332.16
2022-10-18T23:41:05.515Z,98492.69
2022-10-18T23:43:51.511Z,98485.09
2022-10-18T23:46:37.226Z,98410.06
2022-10-18T23:49:22.743Z,98330.59
2022-10-18T23:52:08.446Z,98396.16
2022-10-18T23:54:54.131Z,98483.75
2022-10-18T23:57:39.306Z,98479.50
